sensor_id;sensor_type;location;lat;lon;timestamp;pressure;altitude;pressure_sealevel;temperature;humidity
7832;BME280;3961;42.058;25.586;2022-10-31T00:01:24;63439.88;;;10.86;81.17
7832;BME280;3961;42.058;25.586;2022-10-31T00:03:50;63454.31;;;10.98;80.57
7832;BME280;3961;42.058;25.586;2022-10-31T00:06:16;63472.00;;;11.11;79.14
7832;BME280;3961;42.058;25.586;2022-10-31T00:08:52;63471.88;;;11.16;78.79
7832;BME280;3961;42.058;25.586;2022-10-31T00:11:17;63455.47;;;10.99;79.25
7832;BME280;3961;42.058;25.586;2022-10-31T00:13:43;63465.28;;;11.08;79.85
7832;BME280;3961;42.058;25.586;2022-10-31T00:16:19;63470.72;;;11.15;79.49
7832;BME280;3961;42.058;25.586;2022-10-31T00:18:54;63445.31;;;10.93;80.88
7832;BME280;3961;42.058;25.586;2022-10-31T00:21:20;63438.13;;;10.84;81.25
7832;BME280;3961;42.058;25.586;2022-10-31T00:23:46;63435.81;;;10.82;82.10
7832;BME280;3961;42.058;25.586;2022-10-31T00:26:11;63422.56;;;10.70;82.11
7832;BME280;3961;42.058;25.586;2022-10-31T00:28:37;63415.03;;;10.64;81.96
7832;BME280;3961;42.058;25.586;2022-10-31T00:31:05;63413.19;;;10.67;81.35
7832;BME280;3961;42.058;25.586;2022-10-31T00:33:33;63398.28;;;10.49;81.96
7832;BME280;3961;42.058;25.586;2022-10-31T00:35:58;63386.16;;;10.38;82.33
7832;BME280;3961;42.058;25.586;2022-10-31T00:38:24;63399.19;;;10.48;82.04
7832;BME280;3961;42.058;25.586;2022-10-31T00:40:50;63405.78;;;10.56;81.14
7832;BME280;3961;42.058;25.586;2022-10-31T00:43:15;63410.88;;;10.65;80.52
7832;BME280;3961;42.058;25.586;2022-10-31T00:45:42;63404.97;;;10.53;80.62
7832;BME280;3961;42.058;25.586;2022-10-31T00:48:08;63396.56;;;10.48;80.96
7832;BME280;3961;42.058;25.586;2022-10-31T00:50:33;63388.69;;;10.43;81.19
7832;BME280;3961;42.058;25.586;2022-10-31T00:52:59;63382.13;;;10.35;81.14
7832;BME280;3961;42.058;25.586;2022-10-31T00:55:24;63375.19;;;10.29;81.47
7832;BME280;3961;42.058;25.586;2022-10-31T00:57:50;63359.25;;;10.17;83.50
7832;BME280;3961;42.058;25.586;2022-10-31T01:00:16;63366.53;;;10.21;83.39
7832;BME280;3961;42.058;25.586;2022-10-31T01:02:41;63338.22;;;9.96;83.69
7832;BME280;3961;42.058;25.586;2022-10-31T01:05:07;63363.88;;;10.21;83.71
7832;BME280;3961;42.058;25.586;2022-10-31T01:07:35;63378.31;;;10.34;83.67
7832;BME280;3961;42.058;25.586;2022-10-31T01:10:01;63380.06;;;10.35;82.62
7832;BME280;3961;42.058;25.586;2022-10-31T01:12:26;63393.91;;;10.48;81.89
7832;BME280;3961;42.058;25.586;2022-10-31T01:14:52;63386.75;;;10.39;82.93
7832;BME280;3961;42.058;25.586;2022-10-31T01:17:17;63333.03;;;9.92;83.43
7832;BME280;3961;42.058;25.586;2022-10-31T01:19:44;63348.03;;;10.05;86.66
7832;BME280;3961;42.058;25.586;2022-10-31T01:22:10;63377.50;;;10.31;86.16
7832;BME280;3961;42.058;25.586;2022-10-31T01:24:35;63390.53;;;10.40;85.58
7832;BME280;3961;42.058;25.586;2022-10-31T01:27:01;63401.41;;;10.54;83.72
7832;BME280;3961;42.058;25.586;2022-10-31T01:29:26;63415.28;;;10.66;83.00
7832;BME280;3961;42.058;25.586;2022-10-31T01:31:52;63423.34;;;10.73;81.87
7832;BME280;3961;42.058;25.586;2022-10-31T01:34:17;63421.97;;;10.70;81.45
7832;BME280;3961;42.058;25.586;2022-10-31T01:36:44;63435.00;;;10.79;80.67
7832;BME280;3961;42.058;25.586;2022-10-31T01:39:12;63471.06;;;11.13;79.33
7832;BME280;3961;42.058;25.586;2022-10-31T01:41:43;63471.66;;;11.14;78.55
7832;BME280;3961;42.058;25.586;2022-10-31T01:46:51;63476.28;;;11.18;78.17
7832;BME280;3961;42.058;25.586;2022-10-31T01:49:38;63468.41;;;11.13;78.50
7832;BME280;3961;42.058;25.586;2022-10-31T01:52:26;63477.53;;;11.14;78.78
7832;BME280;3961;42.058;25.586;2022-10-31T01:57:32;63491.88;;;11.31;78.46
7832;BME280;3961;42.058;25.586;2022-10-31T02:00:02;63493.63;;;11.33;78.03
7832;BME280;3961;42.058;25.586;2022-10-31T02:02:29;63499.03;;;11.40;77.35
7832;BME280;3961;42.058;25.586;2022-10-31T02:04:56;63494.44;;;11.36;77.10
7832;BME280;3961;42.058;25.586;2022-10-31T02:07:29;63512.69;;;11.50;76.38
7832;BME280;3961;42.058;25.586;2022-10-31T02:09:58;63517.88;;;11.54;76.10
7832;BME280;3961;42.058;25.586;2022-10-31T02:12:25;63519.53;;;11.60;75.99
7832;BME280;3961;42.058;25.586;2022-10-31T02:14:51;63528.06;;;11.61;74.92
7832;BME280;3961;42.058;25.586;2022-10-31T02:17:16;63529.81;;;11.62;75.23
7832;BME280;3961;42.058;25.586;2022-10-31T02:19:50;63530.03;;;11.65;75.45
7832;BME280;3961;42.058;25.586;2022-10-31T02:30:41;63538.34;;;11.74;74.08
7832;BME280;3961;42.058;25.586;2022-10-31T02:33:17;63540.19;;;11.71;75.04
7832;BME280;3961;42.058;25.586;2022-10-31T02:42:10;63506.56;;;11.47;76.29
7832;BME280;3961;42.058;25.586;2022-10-31T02:44:45;63528.88;;;11.64;76.21
7832;BME280;3961;42.058;25.586;2022-10-31T02:47:17;63540.56;;;11.69;75.68
7832;BME280;3961;42.058;25.586;2022-10-31T02:52:25;63542.75;;;11.76;75.54
7832;BME280;3961;42.058;25.586;2022-10-31T02:54:52;63560.38;;;11.94;74.90
7832;BME280;3961;42.058;25.586;2022-10-31T02:57:42;63553.41;;;11.88;75.86
7832;BME280;3961;42.058;25.586;2022-10-31T03:00:08;63551.34;;;11.88;77.02
7832;BME280;3961;42.058;25.586;2022-10-31T03:08:22;63575.50;;;12.02;74.97
7832;BME280;3961;42.058;25.586;2022-10-31T03:10:58;63584.19;;;12.10;75.64
7832;BME280;3961;42.058;25.586;2022-10-31T03:19:02;63564.41;;;11.97;76.84
7832;BME280;3961;42.058;25.586;2022-10-31T03:21:38;63583.25;;;12.11;76.04
7832;BME280;3961;42.058;25.586;2022-10-31T03:24:08;63561.28;;;11.92;77.14
7832;BME280;3961;42.058;25.586;2022-10-31T03:26:41;63559.22;;;11.93;77.46
7832;BME280;3961;42.058;25.586;2022-10-31T03:29:11;63567.88;;;12.00;76.88
7832;BME280;3961;42.058;25.586;2022-10-31T03:31:47;63572.28;;;12.02;76.75
7832;BME280;3961;42.058;25.586;2022-10-31T03:34:17;63585.56;;;12.14;75.80
7832;BME280;3961;42.058;25.586;2022-10-31T03:36:45;63583.84;;;12.12;75.88
7832;BME280;3961;42.058;25.586;2022-10-31T03:39:15;63584.41;;;12.13;75.40
7832;BME280;3961;42.058;25.586;2022-10-31T03:41:49;63563.59;;;11.94;76.62
7832;BME280;3961;42.058;25.586;2022-10-31T03:44:17;63566.84;;;11.95;76.13
7832;BME280;3961;42.058;25.586;2022-10-31T03:46:44;63573.78;;;12.01;77.26
7832;BME280;3961;42.058;25.586;2022-10-31T03:49:11;63540.44;;;11.74;80.95
7832;BME280;3961;42.058;25.586;2022-10-31T03:51:52;63527.72;;;11.63;83.13
7832;BME280;3961;42.058;25.586;2022-10-31T03:54:54;63524.84;;;11.60;80.69
7832;BME280;3961;42.058;25.586;2022-10-31T03:57:38;63521.94;;;11.58;80.78
7832;BME280;3961;42.058;25.586;2022-10-31T04:00:10;63523.69;;;11.59;80.74
7832;BME280;3961;42.058;25.586;2022-10-31T04:02:40;63525.06;;;11.63;80.44
7832;BME280;3961;42.058;25.586;2022-10-31T04:05:07;63510.94;;;11.48;80.58
7832;BME280;3961;42.058;25.586;2022-10-31T04:07:38;63521.38;;;11.57;79.83
7832;BME280;3961;42.058;25.586;2022-10-31T04:10:08;63520.53;;;11.54;79.84
7832;BME280;3961;42.058;25.586;2022-10-31T04:12:35;63510.03;;;11.50;79.99
7832;BME280;3961;42.058;25.586;2022-10-31T04:15:05;63506.91;;;11.44;79.96
7832;BME280;3961;42.058;25.586;2022-10-31T04:17:34;63507.47;;;11.45;80.08
7832;BME280;3961;42.058;25.586;2022-10-31T04:20:02;63490.63;;;11.35;79.95
7832;BME280;3961;42.058;25.586;2022-10-31T04:22:28;63497.31;;;11.38;80.47
7832;BME280;3961;42.058;25.586;2022-10-31T04:24:54;63488.75;;;11.26;81.23
7832;BME280;3961;42.058;25.586;2022-10-31T04:27:19;63490.72;;;11.30;81.26
7832;BME280;3961;42.058;25.586;2022-10-31T04:29:45;63473.03;;;11.17;81.85
7832;BME280;3961;42.058;25.586;2022-10-31T04:32:10;63476.28;;;11.18;81.64
7832;BME280;3961;42.058;25.586;2022-10-31T04:34:36;63472.22;;;11.14;81.95
7832;BME280;3961;42.058;25.586;2022-10-31T04:37:01;63476.63;;;11.16;82.78
7832;BME280;3961;42.058;25.586;2022-10-31T04:39:27;63464.13;;;11.07;83.40
7832;BME280;3961;42.058;25.586;2022-10-31T04:41:52;63458.03;;;11.04;83.39
7832;BME280;3961;42.058;25.586;2022-10-31T04:44:18;63478.00;;;11.19;83.02
7832;BME280;3961;42.058;25.586;2022-10-31T04:46:43;63497.53;;;11.41;81.58
7832;BME280;3961;42.058;25.586;2022-10-31T04:49:09;63497.88;;;11.39;82.15
7832;BME280;3961;42.058;25.586;2022-10-31T04:51:35;63502.28;;;11.40;81.44
7832;BME280;3961;42.058;25.586;2022-10-31T04:54:00;63501.34;;;11.42;81.94
7832;BME280;3961;42.058;25.586;2022-10-31T04:56:26;63507.25;;;11.42;82.22
7832;BME280;3961;42.058;25.586;2022-10-31T04:58:51;63498.47;;;11.39;81.75
7832;BME280;3961;42.058;25.586;2022-10-31T05:01:17;63513.25;;;11.50;81.54
7832;BME280;3961;42.058;25.586;2022-10-31T05:03:42;63523.44;;;11.57;80.96
7832;BME280;3961;42.058;25.586;2022-10-31T05:06:08;63525.19;;;11.58;80.39
7832;BME280;3961;42.058;25.586;2022-10-31T05:08:34;63491.31;;;11.31;79.66
7832;BME280;3961;42.058;25.586;2022-10-31T05:11:03;63535.00;;;11.67;80.00
7832;BME280;3961;42.058;25.586;2022-10-31T05:13:29;63560.38;;;11.94;79.32
7832;BME280;3961;42.058;25.586;2022-10-31T05:15:54;63562.44;;;11.93;79.96
7832;BME280;3961;42.058;25.586;2022-10-31T05:18:20;63552.59;;;11.85;78.95
7832;BME280;3961;42.058;25.586;2022-10-31T05:20:46;63577.22;;;12.04;78.08
7832;BME280;3961;42.058;25.586;2022-10-31T05:23:11;63568.81;;;11.99;77.73
7832;BME280;3961;42.058;25.586;2022-10-31T05:25:37;63583.50;;;12.14;78.04
7832;BME280;3961;42.058;25.586;2022-10-31T05:28:02;63561.06;;;11.90;78.42
7832;BME280;3961;42.058;25.586;2022-10-31T05:30:30;63568.22;;;11.98;79.45
7832;BME280;3961;42.058;25.586;2022-10-31T05:32:56;63553.41;;;11.88;79.13
7832;BME280;3961;42.058;25.586;2022-10-31T05:35:28;63584.31;;;12.17;78.96
7832;BME280;3961;42.058;25.586;2022-10-31T05:37:55;63593.91;;;12.23;79.09
7832;BME280;3961;42.058;25.586;2022-10-31T05:40:21;63609.88;;;12.35;78.52
7832;BME280;3961;42.058;25.586;2022-10-31T05:42:50;63621.44;;;12.45;78.04
7832;BME280;3961;42.058;25.586;2022-10-31T05:45:17;63633.03;;;12.55;77.76
7832;BME280;3961;42.058;25.586;2022-10-31T05:47:59;63633.94;;;12.54;77.82
7832;BME280;3961;42.058;25.586;2022-10-31T05:50:27;63648.06;;;12.68;77.13
7832;BME280;3961;42.058;25.586;2022-10-31T05:53:03;63667.28;;;12.81;76.88
7832;BME280;3961;42.058;25.586;2022-10-31T05:55:31;63669.84;;;12.85;77.22
7832;BME280;3961;42.058;25.586;2022-10-31T05:57:56;63667.41;;;12.88;77.75
7832;BME280;3961;42.058;25.586;2022-10-31T06:00:23;63677.25;;;12.96;76.93
7832;BME280;3961;42.058;25.586;2022-10-31T06:02:49;63675.53;;;12.95;76.73
7832;BME280;3961;42.058;25.586;2022-10-31T06:05:15;63673.91;;;12.89;77.75
7832;BME280;3961;42.058;25.586;2022-10-31T06:07:42;63663.47;;;12.79;78.47
7832;BME280;3961;42.058;25.586;2022-10-31T06:10:09;63681.09;;;12.97;77.92
7832;BME280;3961;42.058;25.586;2022-10-31T06:12:35;63705.19;;;13.16;78.19
7832;BME280;3961;42.058;25.586;2022-10-31T06:15:07;63722.94;;;13.29;76.99
7832;BME280;3961;42.058;25.586;2022-10-31T06:17:34;63733.81;;;13.43;75.97
7832;BME280;3961;42.058;25.586;2022-10-31T06:20:00;63738.69;;;13.50;76.43
7832;BME280;3961;42.058;25.586;2022-10-31T06:22:27;63746.31;;;13.52;76.58
7832;BME280;3961;42.058;25.586;2022-10-31T06:24:56;63766.25;;;13.72;75.79
7832;BME280;3961;42.058;25.586;2022-10-31T06:27:22;63782.84;;;13.84;74.78
7832;BME280;3961;42.058;25.586;2022-10-31T06:29:49;63783.06;;;13.87;75.55
7832;BME280;3961;42.058;25.586;2022-10-31T06:32:15;63776.34;;;13.83;75.78
7832;BME280;3961;42.058;25.586;2022-10-31T06:34:42;63763.00;;;13.71;76.45
7832;BME280;3961;42.058;25.586;2022-10-31T06:37:17;63787.13;;;13.90;76.04
7832;BME280;3961;42.058;25.586;2022-10-31T06:39:48;63799.88;;;14.01;75.15
7832;BME280;3961;42.058;25.586;2022-10-31T06:42:33;63815.53;;;14.15;75.02
7832;BME280;3961;42.058;25.586;2022-10-31T06:45:19;63817.63;;;14.15;74.55
7832;BME280;3961;42.058;25.586;2022-10-31T06:48:04;63839.19;;;14.40;74.61
7832;BME280;3961;42.058;25.586;2022-10-31T06:50:31;63852.31;;;14.50;73.36
7832;BME280;3961;42.058;25.586;2022-10-31T06:52:59;63868.69;;;14.59;72.96
7832;BME280;3961;42.058;25.586;2022-10-31T06:55:26;63873.19;;;14.68;72.62
7832;BME280;3961;42.058;25.586;2022-10-31T06:58:03;63892.34;;;14.85;71.96
7832;BME280;3961;42.058;25.586;2022-10-31T07:00:30;63907.78;;;14.96;71.66
7832;BME280;3961;42.058;25.586;2022-10-31T07:02:59;63922.53;;;15.11;71.60
7832;BME280;3961;42.058;25.586;2022-10-31T07:05:31;64057.63;;;16.27;68.97
7832;BME280;3961;42.058;25.586;2022-10-31T07:08:17;64099.84;;;16.61;66.46
7832;BME280;3961;42.058;25.586;2022-10-31T07:10:51;64130.13;;;16.88;66.06
7832;BME280;3961;42.058;25.586;2022-10-31T07:13:17;64228.91;;;17.78;61.75
7832;BME280;3961;42.058;25.586;2022-10-31T07:15:43;64257.56;;;17.99;60.65
7832;BME280;3961;42.058;25.586;2022-10-31T07:18:10;64226.72;;;17.72;60.59
7832;BME280;3961;42.058;25.586;2022-10-31T07:20:37;64249.63;;;17.94;61.51
7832;BME280;3961;42.058;25.586;2022-10-31T07:23:02;64274.09;;;18.16;61.54
7832;BME280;3961;42.058;25.586;2022-10-31T07:25:28;64331.56;;;18.63;60.35
7832;BME280;3961;42.058;25.586;2022-10-31T07:27:54;64346.34;;;18.78;59.36
7832;BME280;3961;42.058;25.586;2022-10-31T07:30:19;64399.97;;;19.25;57.63
7832;BME280;3961;42.058;25.586;2022-10-31T07:32:46;64423.06;;;19.43;56.28
7832;BME280;3961;42.058;25.586;2022-10-31T07:35:14;64443.50;;;19.61;55.58
7832;BME280;3961;42.058;25.586;2022-10-31T07:37:40;64452.47;;;19.71;54.96
7832;BME280;3961;42.058;25.586;2022-10-31T07:40:07;64495.06;;;20.08;54.42
7832;BME280;3961;42.058;25.586;2022-10-31T07:42:37;64564.91;;;20.66;52.58
7832;BME280;3961;42.058;25.586;2022-10-31T07:45:07;64578.13;;;20.75;52.23
7832;BME280;3961;42.058;25.586;2022-10-31T07:47:52;64601.56;;;21.03;51.40
7832;BME280;3961;42.058;25.586;2022-10-31T07:50:20;64639.09;;;21.31;51.74
7832;BME280;3961;42.058;25.586;2022-10-31T07:52:46;64663.06;;;21.52;49.97
7832;BME280;3961;42.058;25.586;2022-10-31T07:55:12;64668.53;;;21.59;49.36
7832;BME280;3961;42.058;25.586;2022-10-31T07:57:38;64622.94;;;21.19;49.45
7832;BME280;3961;42.058;25.586;2022-10-31T08:00:08;64627.41;;;21.21;51.51
7832;BME280;3961;42.058;25.586;2022-10-31T08:02:34;64664.00;;;21.50;50.93
7832;BME280;3961;42.058;25.586;2022-10-31T08:05:00;64695.19;;;21.79;49.04
7832;BME280;3961;42.058;25.586;2022-10-31T08:07:27;64692.66;;;21.75;51.03
7832;BME280;3961;42.058;25.586;2022-10-31T08:09:54;64735.56;;;22.15;49.85
7832;BME280;3961;42.058;25.586;2022-10-31T08:12:20;64762.72;;;22.40;48.37
7832;BME280;3961;42.058;25.586;2022-10-31T08:14:46;64780.63;;;22.54;47.39
7832;BME280;3961;42.058;25.586;2022-10-31T08:17:11;64774.75;;;22.49;48.88
7832;BME280;3961;42.058;25.586;2022-10-31T08:19:37;64810.22;;;22.77;46.34
7832;BME280;3961;42.058;25.586;2022-10-31T08:22:03;64808.94;;;22.81;47.04
7832;BME280;3961;42.058;25.586;2022-10-31T08:24:28;64820.19;;;22.86;46.92
7832;BME280;3961;42.058;25.586;2022-10-31T08:26:54;64826.28;;;22.93;46.32
7832;BME280;3961;42.058;25.586;2022-10-31T08:29:19;64849.47;;;23.11;46.73
7832;BME280;3961;42.058;25.586;2022-10-31T08:31:45;64850.50;;;23.17;46.00
7832;BME280;3961;42.058;25.586;2022-10-31T08:34:10;64840.34;;;23.05;45.71
7832;BME280;3961;42.058;25.586;2022-10-31T08:36:36;64899.25;;;23.54;44.30
7832;BME280;3961;42.058;25.586;2022-10-31T08:39:02;64872.53;;;23.33;45.05
7832;BME280;3961;42.058;25.586;2022-10-31T08:41:27;64882.63;;;23.37;45.32
7832;BME280;3961;42.058;25.586;2022-10-31T08:43:53;64908.06;;;23.62;44.69
7832;BME280;3961;42.058;25.586;2022-10-31T08:46:18;64917.03;;;23.72;44.21
7832;BME280;3961;42.058;25.586;2022-10-31T08:48:44;64929.13;;;23.80;44.41
7832;BME280;3961;42.058;25.586;2022-10-31T08:51:12;64968.97;;;24.15;43.43
7832;BME280;3961;42.058;25.586;2022-10-31T08:53:38;64985.25;;;24.33;43.08
7832;BME280;3961;42.058;25.586;2022-10-31T08:56:03;65004.00;;;24.50;43.13
7832;BME280;3961;42.058;25.586;2022-10-31T08:58:29;65007.91;;;24.51;42.41
7832;BME280;3961;42.058;25.586;2022-10-31T09:00:55;65002.84;;;24.49;42.96
7832;BME280;3961;42.058;25.586;2022-10-31T09:05:48;65056.19;;;24.95;41.13
7832;BME280;3961;42.058;25.586;2022-10-31T09:08:15;65041.69;;;24.77;41.04
7832;BME280;3961;42.058;25.586;2022-10-31T09:10:41;65030.16;;;24.70;41.46
7832;BME280;3961;42.058;25.586;2022-10-31T09:13:10;65043.66;;;24.82;41.60
7832;BME280;3961;42.058;25.586;2022-10-31T09:15:38;65061.03;;;24.94;41.02
7832;BME280;3961;42.058;25.586;2022-10-31T09:18:07;65074.53;;;25.06;41.45
7832;BME280;3961;42.058;25.586;2022-10-31T09:20:35;65067.13;;;25.02;41.21
7832;BME280;3961;42.058;25.586;2022-10-31T09:23:04;65064.81;;;25.00;41.55
7832;BME280;3961;42.058;25.586;2022-10-31T09:25:30;65082.97;;;25.16;40.96
7832;BME280;3961;42.058;25.586;2022-10-31T09:27:57;65084.16;;;25.17;40.69
7832;BME280;3961;42.058;25.586;2022-10-31T09:30:23;65039.56;;;24.78;41.29
7832;BME280;3961;42.058;25.586;2022-10-31T09:32:55;65058.31;;;24.94;41.24
7832;BME280;3961;42.058;25.586;2022-10-31T09:35:20;65006.72;;;24.50;41.98
7832;BME280;3961;42.058;25.586;2022-10-31T09:37:46;65006.94;;;24.52;42.18
7832;BME280;3961;42.058;25.586;2022-10-31T09:40:12;64979.78;;;24.26;42.24
7832;BME280;3961;42.058;25.586;2022-10-31T09:45:41;65031.34;;;24.71;41.76
7832;BME280;3961;42.058;25.586;2022-10-31T09:48:49;65060.81;;;24.92;41.47
7832;BME280;3961;42.058;25.586;2022-10-31T09:56:18;64990.31;;;24.35;42.73
7832;BME280;3961;42.058;25.586;2022-10-31T09:58:50;65032.72;;;24.74;42.11
7832;BME280;3961;42.058;25.586;2022-10-31T10:10:00;65026.09;;;24.66;41.42
7832;BME280;3961;42.058;25.586;2022-10-31T10:15:24;65049.09;;;24.82;41.61
7832;BME280;3961;42.058;25.586;2022-10-31T10:20:51;65085.31;;;25.18;40.93
7832;BME280;3961;42.058;25.586;2022-10-31T10:23:41;65108.38;;;25.33;40.69
7832;BME280;3961;42.058;25.586;2022-10-31T10:26:22;65120.66;;;25.43;40.45
7832;BME280;3961;42.058;25.586;2022-10-31T10:29:01;65142.84;;;25.67;40.14
7832;BME280;3961;42.058;25.586;2022-10-31T10:31:32;65176.09;;;25.94;39.72
7832;BME280;3961;42.058;25.586;2022-10-31T10:36:48;65196.63;;;26.11;39.23
7832;BME280;3961;42.058;25.586;2022-10-31T10:39:20;65205.88;;;26.24;38.67
7832;BME280;3961;42.058;25.586;2022-10-31T10:41:50;65217.19;;;26.29;38.96
7832;BME280;3961;42.058;25.586;2022-10-31T10:44:38;65213.88;;;26.29;38.92
7832;BME280;3961;42.058;25.586;2022-10-31T10:47:24;65236.81;;;26.49;38.15
7832;BME280;3961;42.058;25.586;2022-10-31T10:50:22;65198.97;;;26.14;38.48
7832;BME280;3961;42.058;25.586;2022-10-31T10:55:43;65213.66;;;26.26;39.30
7832;BME280;3961;42.058;25.586;2022-10-31T10:58:14;65223.28;;;26.37;38.92
7832;BME280;3961;42.058;25.586;2022-10-31T11:00:44;65254.00;;;26.59;38.82
7832;BME280;3961;42.058;25.586;2022-10-31T11:03:16;65231.88;;;26.42;38.65
7832;BME280;3961;42.058;25.586;2022-10-31T11:05:47;65233.28;;;26.46;38.34
7832;BME280;3961;42.058;25.586;2022-10-31T11:08:26;65241.88;;;26.51;39.01
7832;BME280;3961;42.058;25.586;2022-10-31T11:13:43;65211.53;;;26.27;38.82
7832;BME280;3961;42.058;25.586;2022-10-31T11:16:32;65171.63;;;25.92;39.54
7832;BME280;3961;42.058;25.586;2022-10-31T11:21:38;65156.13;;;25.76;39.99
7832;BME280;3961;42.058;25.586;2022-10-31T11:26:31;65130.50;;;25.57;40.83
7832;BME280;3961;42.058;25.586;2022-10-31T11:29:01;65129.31;;;25.56;40.90
7832;BME280;3961;42.058;25.586;2022-10-31T11:31:28;65158.69;;;25.81;40.34
7832;BME280;3961;42.058;25.586;2022-10-31T11:34:06;65191.56;;;26.09;39.79
7832;BME280;3961;42.058;25.586;2022-10-31T11:36:39;65215.44;;;26.28;39.39
7832;BME280;3961;42.058;25.586;2022-10-31T11:39:17;65230.72;;;26.41;39.04
7832;BME280;3961;42.058;25.586;2022-10-31T11:41:44;65216.44;;;26.33;39.71
7832;BME280;3961;42.058;25.586;2022-10-31T11:44:15;65213.09;;;26.26;39.55
7832;BME280;3961;42.058;25.586;2022-10-31T11:46:47;65230.72;;;26.41;39.48
7832;BME280;3961;42.058;25.586;2022-10-31T11:49:35;65217.41;;;26.32;39.32
7832;BME280;3961;42.058;25.586;2022-10-31T11:52:05;65230.13;;;26.40;39.03
7832;BME280;3961;42.058;25.586;2022-10-31T11:57:41;65212.13;;;26.27;39.15
7832;BME280;3961;42.058;25.586;2022-10-31T12:05:57;65240.91;;;26.52;38.96
7832;BME280;3961;42.058;25.586;2022-10-31T12:08:27;65250.91;;;26.61;38.66
7832;BME280;3961;42.058;25.586;2022-10-31T12:27:54;65208.00;;;26.24;39.55
7832;BME280;3961;42.058;25.586;2022-10-31T12:30:31;65203.69;;;26.18;39.30
7832;BME280;3961;42.058;25.586;2022-10-31T12:33:07;65175.13;;;25.95;39.80
7832;BME280;3961;42.058;25.586;2022-10-31T12:35:51;65193.31;;;26.11;38.98
7832;BME280;3961;42.058;25.586;2022-10-31T12:41:15;65109.38;;;25.38;39.87
7832;BME280;3961;42.058;25.586;2022-10-31T12:43:57;65141.47;;;25.64;39.84
7832;BME280;3961;42.058;25.586;2022-10-31T12:54:50;65107.03;;;25.36;39.69
7832;BME280;3961;42.058;25.586;2022-10-31T12:57:26;65099.78;;;25.28;39.52
7832;BME280;3961;42.058;25.586;2022-10-31T13:00:14;65084.31;;;25.12;39.76
7832;BME280;3961;42.058;25.586;2022-10-31T13:08:41;65046.59;;;24.84;40.17
7832;BME280;3961;42.058;25.586;2022-10-31T13:11:43;65051.06;;;24.86;40.53
7832;BME280;3961;42.058;25.586;2022-10-31T13:14:23;65052.59;;;24.85;40.69
7832;BME280;3961;42.058;25.586;2022-10-31T13:16:51;65031.72;;;24.69;40.80
7832;BME280;3961;42.058;25.586;2022-10-31T13:19:20;65006.72;;;24.50;41.09
7832;BME280;3961;42.058;25.586;2022-10-31T13:22:24;64999.09;;;24.43;41.56
7832;BME280;3961;42.058;25.586;2022-10-31T13:27:25;65002.84;;;24.49;40.88
7832;BME280;3961;42.058;25.586;2022-10-31T13:30:15;64995.59;;;24.40;41.39
7832;BME280;3961;42.058;25.586;2022-10-31T13:33:05;64975.63;;;24.23;41.54
7832;BME280;3961;42.058;25.586;2022-10-31T13:40:56;65020.94;;;24.57;40.71
7832;BME280;3961;42.058;25.586;2022-10-31T13:45:55;65008.47;;;24.51;41.17
7832;BME280;3961;42.058;25.586;2022-10-31T13:51:01;64985.03;;;24.31;41.78
7832;BME280;3961;42.058;25.586;2022-10-31T13:58:34;64951.78;;;23.97;42.26
7832;BME280;3961;42.058;25.586;2022-10-31T14:03:36;64944.38;;;23.93;42.72
7832;BME280;3961;42.058;25.586;2022-10-31T14:06:03;64933.44;;;23.86;42.58
7832;BME280;3961;42.058;25.586;2022-10-31T14:08:33;64934.63;;;23.87;42.64
7832;BME280;3961;42.058;25.586;2022-10-31T14:10:59;64927.38;;;23.78;42.90
7832;BME280;3961;42.058;25.586;2022-10-31T14:13:35;64926.63;;;23.83;42.94
7832;BME280;3961;42.058;25.586;2022-10-31T14:16:20;64921.72;;;23.76;43.29
7832;BME280;3961;42.058;25.586;2022-10-31T14:18:51;64910.97;;;23.64;43.75
7832;BME280;3961;42.058;25.586;2022-10-31T14:23:49;64910.03;;;23.66;43.09
7832;BME280;3961;42.058;25.586;2022-10-31T14:31:41;64901.59;;;23.56;43.74
7832;BME280;3961;42.058;25.586;2022-10-31T14:48:24;64846.16;;;23.10;45.94
7832;BME280;3961;42.058;25.586;2022-10-31T14:50:57;64822.41;;;22.92;45.91
7832;BME280;3961;42.058;25.586;2022-10-31T14:53:30;64811.63;;;22.81;46.50
7832;BME280;3961;42.058;25.586;2022-10-31T14:55:57;64795.03;;;22.64;46.91
7832;BME280;3961;42.058;25.586;2022-10-31T14:58:39;64792.09;;;22.61;48.13
7832;BME280;3961;42.058;25.586;2022-10-31T15:01:06;64777.91;;;22.54;48.00
7832;BME280;3961;42.058;25.586;2022-10-31T15:03:33;64774.75;;;22.49;49.18
7832;BME280;3961;42.058;25.586;2022-10-31T15:06:02;64762.13;;;22.40;48.86
7832;BME280;3961;42.058;25.586;2022-10-31T15:08:37;64744.72;;;22.20;50.00
7832;BME280;3961;42.058;25.586;2022-10-31T15:13:45;64728.94;;;22.06;50.73
7832;BME280;3961;42.058;25.586;2022-10-31T15:16:19;64708.28;;;21.93;51.02
7832;BME280;3961;42.058;25.586;2022-10-31T15:18:56;64699.28;;;21.83;51.48
7832;BME280;3961;42.058;25.586;2022-10-31T15:21:24;64690.31;;;21.73;52.20
7832;BME280;3961;42.058;25.586;2022-10-31T15:23:56;64697.53;;;21.82;51.75
7832;BME280;3961;42.058;25.586;2022-10-31T15:26:27;64682.00;;;21.70;52.10
7832;BME280;3961;42.058;25.586;2022-10-31T15:29:03;64705.50;;;21.86;51.90
7832;BME280;3961;42.058;25.586;2022-10-31T15:31:29;64699.88;;;21.84;51.82
7832;BME280;3961;42.058;25.586;2022-10-31T15:34:01;64694.97;;;21.77;52.37
7832;BME280;3961;42.058;25.586;2022-10-31T15:36:28;64711.81;;;21.96;51.66
7832;BME280;3961;42.058;25.586;2022-10-31T15:38:56;64705.38;;;21.91;52.22
7832;BME280;3961;42.058;25.586;2022-10-31T15:44:21;64698.13;;;21.82;53.35
7832;BME280;3961;42.058;25.586;2022-10-31T15:46:55;64685.28;;;21.71;53.97
7832;BME280;3961;42.058;25.586;2022-10-31T15:51:52;64650.44;;;21.43;55.36
7832;BME280;3961;42.058;25.586;2022-10-31T15:54:17;64635.38;;;21.25;56.18
7832;BME280;3961;42.058;25.586;2022-10-31T15:56:43;64619.59;;;21.11;56.26
7832;BME280;3961;42.058;25.586;2022-10-31T15:59:20;64604.97;;;20.99;57.49
7832;BME280;3961;42.058;25.586;2022-10-31T16:02:00;64586.72;;;20.88;57.94
7832;BME280;3961;42.058;25.586;2022-10-31T16:04:26;64567.84;;;20.69;58.27
7832;BME280;3961;42.058;25.586;2022-10-31T16:07:13;64548.91;;;20.50;58.63
7832;BME280;3961;42.058;25.586;2022-10-31T16:09:59;64532.56;;;20.36;58.41
7832;BME280;3961;42.058;25.586;2022-10-31T16:12:34;64523.44;;;20.30;59.16